createdAt,value
2018-08-30T00:01:45.886Z,81.55
2018-08-30T00:04:14.128Z,80.70
2018-08-30T00:06:42.353Z,82.81
2018-08-30T00:09:10.561Z,81.25
2018-08-30T00:11:38.816Z,81.53
2018-08-30T00:14:07.026Z,80.29
2018-08-30T00:16:35.299Z,80.82
2018-08-30T00:19:03.568Z,79.68
2018-08-30T00:21:31.849Z,80.06
2018-08-30T00:24:00.082Z,80.47
2018-08-30T00:26:28.286Z,81.45
2018-08-30T00:28:56.521Z,81.74
2018-08-30T00:31:24.729Z,82.73
2018-08-30T00:33:53.821Z,84.02
2018-08-30T00:36:22.085Z,84.47
2018-08-30T00:38:50.344Z,85.62
2018-08-30T00:41:18.665Z,85.23
2018-08-30T00:43:46.814Z,86.27
2018-08-30T00:46:15.057Z,86.80
2018-08-30T00:48:43.277Z,87.09
2018-08-30T00:51:11.490Z,87.47
2018-08-30T00:53:39.734Z,87.38
2018-08-30T00:56:07.929Z,86.81
2018-08-30T00:58:36.150Z,87.54
2018-08-30T01:01:04.446Z,87.29
2018-08-30T01:03:32.685Z,87.50
2018-08-30T01:06:01.148Z,88.06
2018-08-30T01:08:29.386Z,88.28
2018-08-30T01:10:57.601Z,87.39
2018-08-30T01:13:25.840Z,88.28
2018-08-30T01:15:54.049Z,86.94
2018-08-30T01:18:22.432Z,86.49
2018-08-30T01:20:50.659Z,87.45
2018-08-30T01:23:18.883Z,87.46
2018-08-30T01:25:47.138Z,86.82
2018-08-30T01:28:15.362Z,87.08
2018-08-30T01:30:43.630Z,86.19
2018-08-30T01:33:11.902Z,85.54
2018-08-30T01:35:40.082Z,86.12
2018-08-30T01:38:08.301Z,86.10
2018-08-30T01:40:36.517Z,85.92
2018-08-30T01:43:05.010Z,86.35
2018-08-30T01:45:33.283Z,85.18
2018-08-30T01:48:01.537Z,85.36
2018-08-30T01:50:29.841Z,84.71
2018-08-30T01:52:58.088Z,84.70
2018-08-30T01:55:26.326Z,84.84
2018-08-30T01:57:54.548Z,85.44
2018-08-30T02:00:22.794Z,85.61
2018-08-30T02:02:51.015Z,86.08
2018-08-30T02:05:19.239Z,86.37
2018-08-30T02:07:47.442Z,85.93
2018-08-30T02:10:15.690Z,86.26
2018-08-30T02:12:43.907Z,87.51
2018-08-30T02:15:12.174Z,86.83
2018-08-30T02:17:40.414Z,86.77
2018-08-30T02:20:08.666Z,86.40
2018-08-30T02:22:36.884Z,87.49
2018-08-30T02:25:05.165Z,86.84
2018-08-30T02:27:33.388Z,87.40
2018-08-30T02:30:01.635Z,87.94
2018-08-30T02:32:29.845Z,87.80
2018-08-30T02:34:58.088Z,87.29
2018-08-30T02:37:26.326Z,88.59
2018-08-30T02:39:54.556Z,86.88
2018-08-30T02:42:22.874Z,87.10
2018-08-30T02:44:51.096Z,87.00
2018-08-30T02:47:19.313Z,87.48
2018-08-30T02:49:47.532Z,86.36
2018-08-30T02:52:15.752Z,85.75
2018-08-30T02:54:44.016Z,85.86
2018-08-30T02:57:12.247Z,86.35
2018-08-30T02:59:40.472Z,85.79
2018-08-30T03:02:08.741Z,86.49
2018-08-30T03:04:36.962Z,86.48
2018-08-30T03:07:05.187Z,86.54
2018-08-30T03:09:33.407Z,85.80
2018-08-30T03:12:01.635Z,85.75
2018-08-30T03:14:29.849Z,85.62
2018-08-30T03:16:58.053Z,85.19
2018-08-30T03:19:26.267Z,84.99
2018-08-30T03:21:54.535Z,85.69
2018-08-30T03:24:22.737Z,85.28
2018-08-30T03:26:50.964Z,84.92
2018-08-30T03:29:19.169Z,85.58
2018-08-30T03:31:47.420Z,85.31
2018-08-30T03:34:15.670Z,84.12
2018-08-30T03:36:43.899Z,84.83
2018-08-30T03:39:12.101Z,85.08
2018-08-30T03:41:40.347Z,85.23
2018-08-30T03:44:08.574Z,84.99
2018-08-30T03:46:36.793Z,85.73
2018-08-30T03:49:05.406Z,85.15
2018-08-30T03:51:33.646Z,84.40
2018-08-30T03:54:01.890Z,84.35
2018-08-30T03:56:30.135Z,84.65
2018-08-30T03:58:58.378Z,84.98
2018-08-30T04:01:26.604Z,85.24
2018-08-30T04:03:54.825Z,85.13
2018-08-30T04:06:23.038Z,84.50
2018-08-30T04:08:51.301Z,83.92
2018-08-30T04:11:19.510Z,84.20
2018-08-30T04:13:47.741Z,84.52
2018-08-30T04:16:15.965Z,83.08
2018-08-30T04:18:44.181Z,84.41
2018-08-30T04:21:12.430Z,84.17
2018-08-30T04:23:40.642Z,84.07
2018-08-30T04:26:08.862Z,83.71
2018-08-30T04:28:37.056Z,83.33
2018-08-30T04:31:05.455Z,83.93
2018-08-30T04:33:33.692Z,84.24
2018-08-30T04:36:01.915Z,84.27
2018-08-30T04:38:30.122Z,84.22
2018-08-30T04:40:58.340Z,83.16
2018-08-30T04:43:26.567Z,83.10
2018-08-30T04:45:54.809Z,84.26
2018-08-30T04:48:23.071Z,84.25
2018-08-30T04:50:51.286Z,82.85
2018-08-30T04:53:19.505Z,83.89
2018-08-30T04:55:47.709Z,83.17
2018-08-30T04:58:16.110Z,84.39
2018-08-30T05:00:44.356Z,83.47
2018-08-30T05:03:12.588Z,82.90
2018-08-30T05:05:40.798Z,82.19
2018-08-30T05:08:09.027Z,82.87
2018-08-30T05:10:37.285Z,83.94
2018-08-30T05:13:05.543Z,82.00
2018-08-30T05:15:33.781Z,82.93
2018-08-30T05:18:02.035Z,82.78
2018-08-30T05:20:30.258Z,82.79
2018-08-30T05:22:58.505Z,82.39
2018-08-30T05:25:26.710Z,83.13
2018-08-30T05:27:54.927Z,82.48
2018-08-30T05:30:23.418Z,82.09
2018-08-30T05:32:51.649Z,82.21
2018-08-30T05:35:19.883Z,81.94
2018-08-30T05:37:48.101Z,81.61
2018-08-30T05:40:16.326Z,81.73
2018-08-30T05:42:44.542Z,82.77
2018-08-30T05:45:12.779Z,82.48
2018-08-30T05:47:40.993Z,81.56
2018-08-30T05:50:09.218Z,81.77
2018-08-30T05:52:37.446Z,80.92
2018-08-30T05:55:05.678Z,81.01
2018-08-30T05:57:33.937Z,82.31
2018-08-30T06:00:02.407Z,81.20
2018-08-30T06:02:30.670Z,82.08
2018-08-30T06:04:59.429Z,81.89
2018-08-30T06:07:27.881Z,81.20
2018-08-30T06:09:56.054Z,81.38
2018-08-30T06:12:24.345Z,81.13
2018-08-30T06:14:52.594Z,80.18
2018-08-30T06:17:20.817Z,81.06
2018-08-30T06:19:49.026Z,81.30
2018-08-30T06:22:17.246Z,80.13
2018-08-30T06:24:45.481Z,80.56
2018-08-30T06:27:13.702Z,80.29
2018-08-30T06:29:41.950Z,80.20
2018-08-30T06:32:10.193Z,78.51
2018-08-30T06:34:38.453Z,79.33
2018-08-30T06:37:06.693Z,78.10
2018-08-30T06:39:35.012Z,78.98
2018-08-30T06:42:03.217Z,78.76
2018-08-30T06:44:31.639Z,78.30
2018-08-30T06:46:59.899Z,78.98
2018-08-30T06:49:28.113Z,78.33
2018-08-30T06:51:56.326Z,78.58
2018-08-30T06:54:24.577Z,78.96
2018-08-30T06:56:52.825Z,77.33
2018-08-30T06:59:21.037Z,77.98
2018-08-30T07:01:49.273Z,78.96
2018-08-30T07:04:17.610Z,79.04
2018-08-30T07:06:45.727Z,79.10
2018-08-30T07:09:13.953Z,78.39
2018-08-30T07:11:42.186Z,78.76
2018-08-30T07:14:10.504Z,78.18
2018-08-30T07:16:38.738Z,78.39
2018-08-30T07:19:06.962Z,78.03
2018-08-30T07:21:35.191Z,78.36
2018-08-30T07:24:03.402Z,79.59
2018-08-30T07:26:31.641Z,79.84
2018-08-30T07:28:59.879Z,78.99
2018-08-30T07:31:28.130Z,79.84
2018-08-30T07:33:56.351Z,79.90
2018-08-30T07:36:24.684Z,80.16
2018-08-30T07:38:52.959Z,80.00
2018-08-30T07:41:21.189Z,80.66
2018-08-30T07:43:49.448Z,80.67
2018-08-30T07:46:17.684Z,80.93
2018-08-30T07:48:45.903Z,81.00
2018-08-30T07:51:14.365Z,81.55
2018-08-30T07:53:42.601Z,80.51
2018-08-30T07:56:10.943Z,80.16
2018-08-30T07:58:39.161Z,80.98
2018-08-30T08:01:07.374Z,81.93
2018-08-30T08:03:35.730Z,81.14
2018-08-30T08:06:04.123Z,80.88
2018-08-30T08:08:32.326Z,80.12
2018-08-30T08:11:00.554Z,79.35
2018-08-30T08:13:28.761Z,80.00
2018-08-30T08:15:59.087Z,79.20
2018-08-30T08:18:27.426Z,76.08
2018-08-30T08:20:55.669Z,76.11
2018-08-30T08:23:23.931Z,74.97
2018-08-30T08:25:52.141Z,71.63
2018-08-30T08:28:20.370Z,72.28
2018-08-30T08:30:48.606Z,71.75
2018-08-30T08:33:16.817Z,73.73
2018-08-30T08:35:45.033Z,74.52
2018-08-30T08:38:13.297Z,73.98
2018-08-30T08:40:41.514Z,74.58
2018-08-30T08:43:09.768Z,72.15
2018-08-30T08:45:38.044Z,69.87
2018-08-30T08:48:06.319Z,69.77
2018-08-30T08:50:34.547Z,68.20
2018-08-30T08:53:02.846Z,68.01
2018-08-30T08:55:31.097Z,67.55
2018-08-30T08:57:59.361Z,66.08
2018-08-30T09:00:27.572Z,66.97
2018-08-30T09:02:55.814Z,65.48
2018-08-30T09:05:24.059Z,63.86
2018-08-30T09:07:52.298Z,64.33
2018-08-30T09:10:20.535Z,63.09
2018-08-30T09:12:48.784Z,62.27
2018-08-30T09:15:17.035Z,62.47
2018-08-30T09:17:45.291Z,63.38
2018-08-30T09:20:13.532Z,63.09
2018-08-30T09:22:41.758Z,62.36
2018-08-30T09:25:09.997Z,62.21
2018-08-30T09:27:38.231Z,61.18
2018-08-30T09:30:06.541Z,60.63
2018-08-30T09:32:34.802Z,58.99
2018-08-30T09:35:03.062Z,59.81
2018-08-30T09:37:31.319Z,58.95
2018-08-30T09:39:59.761Z,59.83
2018-08-30T09:42:27.967Z,60.14
2018-08-30T09:44:56.181Z,60.74
2018-08-30T09:47:24.390Z,59.36
2018-08-30T09:49:52.670Z,59.53
2018-08-30T09:52:20.842Z,56.84
2018-08-30T09:54:49.097Z,55.55
2018-08-30T09:57:17.559Z,54.96
2018-08-30T09:59:45.522Z,56.01
2018-08-30T10:02:18.865Z,56.36
2018-08-30T10:04:47.216Z,56.50
2018-08-30T10:07:15.426Z,55.72
2018-08-30T10:09:43.648Z,54.91
2018-08-30T10:12:11.866Z,54.82
2018-08-30T10:14:40.079Z,53.45
2018-08-30T10:17:08.298Z,53.15
2018-08-30T10:19:36.698Z,53.89
2018-08-30T10:22:05.075Z,56.05
2018-08-30T10:24:33.284Z,57.09
2018-08-30T10:27:01.498Z,58.30
2018-08-30T10:29:29.737Z,57.49
2018-08-30T10:31:58.058Z,54.92
2018-08-30T10:34:26.346Z,53.81
2018-08-30T10:36:54.626Z,54.93
2018-08-30T10:39:22.850Z,54.44
2018-08-30T10:41:51.105Z,55.59
2018-08-30T10:44:19.329Z,54.90
2018-08-30T10:46:47.570Z,54.53
2018-08-30T10:49:16.150Z,54.21
2018-08-30T10:51:44.385Z,54.39
2018-08-30T10:54:12.633Z,54.46
2018-08-30T10:56:40.889Z,52.79
2018-08-30T10:59:09.454Z,51.09
2018-08-30T11:01:37.694Z,51.76
2018-08-30T11:04:06.454Z,51.07
2018-08-30T11:06:34.694Z,52.36
2018-08-30T11:09:03.040Z,53.16
2018-08-30T11:11:31.217Z,52.13
2018-08-30T11:13:59.442Z,51.17
2018-08-30T11:16:27.648Z,49.95
2018-08-30T11:18:55.962Z,49.19
2018-08-30T11:21:24.184Z,49.73
2018-08-30T11:23:52.494Z,49.47
2018-08-30T11:26:20.738Z,49.33
2018-08-30T11:28:48.982Z,49.00
2018-08-30T11:31:17.206Z,48.40
2018-08-30T11:33:45.503Z,47.26
2018-08-30T11:36:13.776Z,47.58
2018-08-30T11:38:42.001Z,48.70
2018-08-30T11:41:10.217Z,50.58
2018-08-30T11:43:38.517Z,51.42
2018-08-30T11:46:06.747Z,50.09
2018-08-30T11:48:35.053Z,46.30
2018-08-30T11:51:03.350Z,45.38
2018-08-30T11:53:31.649Z,44.56
2018-08-30T11:55:59.914Z,44.09
2018-08-30T11:58:28.144Z,45.01
2018-08-30T12:00:56.458Z,45.07
2018-08-30T12:03:24.665Z,45.92
2018-08-30T12:05:53.441Z,45.31
2018-08-30T12:08:21.743Z,44.24
2018-08-30T12:10:50.016Z,44.92
2018-08-30T12:13:18.170Z,46.19
2018-08-30T12:15:46.435Z,46.34
2018-08-30T12:18:14.747Z,45.63
2018-08-30T12:20:43.064Z,44.38
2018-08-30T12:23:11.201Z,44.85
2018-08-30T12:25:39.434Z,45.25
2018-08-30T12:28:07.744Z,46.25
2018-08-30T12:30:36.003Z,44.03
2018-08-30T12:33:04.227Z,44.60
2018-08-30T12:35:32.526Z,42.87
2018-08-30T12:38:00.785Z,43.04
2018-08-30T12:40:29.058Z,43.39
2018-08-30T12:42:57.452Z,42.20
2018-08-30T12:45:25.470Z,42.76
2018-08-30T12:47:54.834Z,41.61
2018-08-30T12:50:23.183Z,41.16
2018-08-30T12:52:51.465Z,42.47
2018-08-30T12:55:19.659Z,40.11
2018-08-30T12:57:47.918Z,41.11
2018-08-30T13:00:16.151Z,40.33
2018-08-30T13:02:44.415Z,39.49
2018-08-30T13:05:12.781Z,39.32
2018-08-30T13:07:40.949Z,42.14
2018-08-30T13:10:09.343Z,39.11
2018-08-30T13:12:37.604Z,40.12
2018-08-30T13:15:05.911Z,38.82
2018-08-30T13:17:34.168Z,40.88
2018-08-30T13:20:02.449Z,40.06
2018-08-30T13:22:30.767Z,41.01
2018-08-30T13:24:59.003Z,41.80
2018-08-30T13:27:27.137Z,39.06
2018-08-30T13:29:55.335Z,39.53
2018-08-30T13:32:23.868Z,38.90
2018-08-30T13:34:52.154Z,38.60
2018-08-30T13:37:20.262Z,37.35
2018-08-30T13:39:48.509Z,38.73
2018-08-30T13:42:16.988Z,38.79
2018-08-30T13:44:45.069Z,38.55
2018-08-30T13:47:13.192Z,38.57
2018-08-30T13:49:41.283Z,39.54
2018-08-30T13:52:10.750Z,39.28
2018-08-30T13:54:38.858Z,38.60
2018-08-30T13:57:07.408Z,38.06
2018-08-30T13:59:36.352Z,39.04
2018-08-30T14:02:03.930Z,37.77
2018-08-30T14:04:32.195Z,38.70
2018-08-30T14:07:00.552Z,40.00
2018-08-30T14:09:28.668Z,40.27
2018-08-30T14:11:56.974Z,39.02
2018-08-30T14:14:25.023Z,39.15
2018-08-30T14:16:52.969Z,39.76
2018-08-30T14:19:21.216Z,40.02
2018-08-30T14:21:49.410Z,38.82
2018-08-30T14:24:17.673Z,37.61
2018-08-30T14:26:45.909Z,38.95
2018-08-30T14:29:14.106Z,39.77
2018-08-30T14:31:42.354Z,38.51
2018-08-30T14:34:10.561Z,37.69
2018-08-30T14:36:39.018Z,37.97
2018-08-30T14:39:08.869Z,37.66
2018-08-30T14:41:37.094Z,37.85
2018-08-30T14:44:05.342Z,38.05
2018-08-30T14:46:33.713Z,39.04
2018-08-30T14:49:01.816Z,38.47
2018-08-30T14:51:30.233Z,38.00
2018-08-30T14:53:58.728Z,38.62
2018-08-30T14:56:26.877Z,38.68
2018-08-30T14:58:55.155Z,37.75
2018-08-30T15:01:23.472Z,38.36
2018-08-30T15:03:51.658Z,37.78
2018-08-30T15:06:19.873Z,37.80
2018-08-30T15:08:48.078Z,37.65
2018-08-30T15:11:16.349Z,37.46
2018-08-30T15:13:44.577Z,37.59
2018-08-30T15:16:12.790Z,37.76
2018-08-30T15:18:41.002Z,39.51
2018-08-30T15:21:09.216Z,39.06
2018-08-30T15:23:37.539Z,38.48
2018-08-30T15:26:05.707Z,38.54
2018-08-30T15:28:33.930Z,38.56
2018-08-30T15:31:02.189Z,39.88
2018-08-30T15:33:30.449Z,37.46
2018-08-30T15:35:58.669Z,37.44
2018-08-30T15:38:26.893Z,37.66
2018-08-30T15:40:55.146Z,36.87
2018-08-30T15:43:23.349Z,37.39
2018-08-30T15:45:51.578Z,36.93
2018-08-30T15:48:19.857Z,36.61
2018-08-30T15:50:47.985Z,35.77
2018-08-30T15:53:16.280Z,36.76
2018-08-30T15:55:44.530Z,35.07
2018-08-30T15:58:12.830Z,36.60
2018-08-30T16:00:41.042Z,37.93
2018-08-30T16:03:09.272Z,37.23
2018-08-30T16:05:37.477Z,37.61
2018-08-30T16:08:05.738Z,38.40
2018-08-30T16:10:34.006Z,38.26
2018-08-30T16:13:02.315Z,37.61
2018-08-30T16:15:30.457Z,38.25
2018-08-30T16:17:58.741Z,39.54
2018-08-30T16:20:26.991Z,38.92
2018-08-30T16:23:02.909Z,39.22
2018-08-30T16:25:31.074Z,39.63
2018-08-30T16:32:54.073Z,38.81
2018-08-30T16:35:22.480Z,39.63
2018-08-30T16:37:50.579Z,39.43
2018-08-30T16:40:19.258Z,38.96
2018-08-30T16:42:47.488Z,39.23
2018-08-30T16:45:15.693Z,39.31
2018-08-30T16:47:43.908Z,40.05
2018-08-30T16:50:12.153Z,39.80
2018-08-30T16:52:40.465Z,41.04
2018-08-30T16:55:08.710Z,41.39
2018-08-30T16:57:37.021Z,41.41
2018-08-30T17:00:05.305Z,41.44
2018-08-30T17:02:33.542Z,42.27
2018-08-30T17:05:01.793Z,41.57
2018-08-30T17:07:30.043Z,41.52
2018-08-30T17:09:58.313Z,41.55
2018-08-30T17:12:26.553Z,40.78
2018-08-30T17:14:54.784Z,40.72
2018-08-30T17:17:23.001Z,42.08
2018-08-30T17:19:51.205Z,41.53
2018-08-30T17:22:19.422Z,42.11
2018-08-30T17:24:47.621Z,41.93
2018-08-30T17:27:15.871Z,42.96
2018-08-30T17:29:44.095Z,42.15
2018-08-30T17:32:12.386Z,41.66
2018-08-30T17:34:40.607Z,41.50
2018-08-30T17:37:08.864Z,42.22
2018-08-30T17:39:37.055Z,41.43
2018-08-30T17:42:05.299Z,41.93
2018-08-30T17:44:33.570Z,42.38
2018-08-30T17:47:01.805Z,42.57
2018-08-30T17:49:30.041Z,42.15
2018-08-30T17:51:58.318Z,43.10
2018-08-30T17:54:26.539Z,42.51
2018-08-30T17:56:54.769Z,42.24
2018-08-30T17:59:22.994Z,42.24
2018-08-30T18:01:51.238Z,43.06
2018-08-30T18:04:19.489Z,43.40
2018-08-30T18:06:47.766Z,43.40
2018-08-30T18:09:15.914Z,44.30
2018-08-30T18:11:44.133Z,43.92
2018-08-30T18:14:12.422Z,44.39
2018-08-30T18:16:40.843Z,45.00
2018-08-30T18:19:09.062Z,44.55
2018-08-30T18:21:37.263Z,44.75
2018-08-30T18:24:05.609Z,44.88
2018-08-30T18:26:33.788Z,44.22
2018-08-30T18:29:02.018Z,45.41
2018-08-30T18:31:30.257Z,45.79
2018-08-30T18:33:58.459Z,45.59
2018-08-30T18:36:26.727Z,44.93
2018-08-30T18:38:54.961Z,46.27
2018-08-30T18:41:23.228Z,46.05
2018-08-30T18:43:51.427Z,46.26
2018-08-30T18:46:19.698Z,47.42
2018-08-30T18:48:47.907Z,47.46
2018-08-30T18:51:16.125Z,47.67
2018-08-30T18:53:44.333Z,47.92
2018-08-30T18:56:12.570Z,48.61
2018-08-30T18:58:40.801Z,49.27
2018-08-30T19:01:09.010Z,49.55
2018-08-30T19:03:37.385Z,50.22
2018-08-30T19:06:05.641Z,50.38
2018-08-30T19:08:34.039Z,51.17
2018-08-30T19:11:02.241Z,50.24
2018-08-30T19:13:30.498Z,51.54
2018-08-30T19:16:03.959Z,52.13
2018-08-30T19:18:37.761Z,50.96
2018-08-30T19:21:06.202Z,51.54
2018-08-30T19:23:34.965Z,51.69
2018-08-30T19:26:03.175Z,52.06
2018-08-30T19:28:31.398Z,51.06
2018-08-30T19:30:59.614Z,51.46
2018-08-30T19:33:27.845Z,50.89
2018-08-30T19:36:01.584Z,51.93
2018-08-30T19:38:29.830Z,51.49
2018-08-30T19:41:03.439Z,51.37
2018-08-30T19:43:32.773Z,51.53
2018-08-30T19:46:00.985Z,51.91
2018-08-30T19:48:29.250Z,53.45
2018-08-30T19:51:02.440Z,52.36
2018-08-30T19:53:30.761Z,54.01
2018-08-30T19:55:58.986Z,54.48
2018-08-30T19:58:29.198Z,55.16
2018-08-30T20:00:57.451Z,55.04
2018-08-30T20:03:25.721Z,54.88
2018-08-30T20:05:53.949Z,55.77
2018-08-30T20:08:22.402Z,56.05
2018-08-30T20:10:50.614Z,56.57
2018-08-30T20:13:19.233Z,56.70
2018-08-30T20:15:47.793Z,55.83
2018-08-30T20:18:16.022Z,57.07
2018-08-30T20:20:44.265Z,57.82
2018-08-30T20:23:12.490Z,58.26
2018-08-30T20:25:40.731Z,58.44
2018-08-30T20:28:08.941Z,58.04
2018-08-30T20:30:37.197Z,58.70
2018-08-30T20:33:05.700Z,58.22
2018-08-30T20:35:33.930Z,58.46
2018-08-30T20:38:02.193Z,58.96
2018-08-30T20:40:30.478Z,59.01
2018-08-30T20:42:58.905Z,59.00
2018-08-30T20:45:27.138Z,59.62
2018-08-30T20:47:55.361Z,60.58
2018-08-30T20:50:23.581Z,60.31
2018-08-30T20:52:51.805Z,60.73
2018-08-30T20:55:20.042Z,60.10
2018-08-30T20:57:48.493Z,59.79
2018-08-30T21:00:16.797Z,60.32
2018-08-30T21:02:44.978Z,59.95
2018-08-30T21:05:13.201Z,60.34
2018-08-30T21:07:41.402Z,60.18
2018-08-30T21:10:09.706Z,61.45
2018-08-30T21:12:37.911Z,59.82
2018-08-30T21:15:06.862Z,60.90
2018-08-30T21:17:35.089Z,61.86
2018-08-30T21:20:03.413Z,61.20
2018-08-30T21:22:31.639Z,60.45
2018-08-30T21:24:59.850Z,61.01
2018-08-30T21:27:28.082Z,60.97
2018-08-30T21:29:56.265Z,60.43
2018-08-30T21:32:24.513Z,60.07
2018-08-30T21:34:52.730Z,59.40
2018-08-30T21:37:20.950Z,59.81
2018-08-30T21:39:49.162Z,59.48
2018-08-30T21:42:17.387Z,60.15
2018-08-30T21:44:45.593Z,60.67
2018-08-30T21:47:13.807Z,61.68
2018-08-30T21:49:42.004Z,60.41
2018-08-30T21:52:10.279Z,61.19
2018-08-30T21:54:38.494Z,61.78
2018-08-30T21:57:06.722Z,61.72
2018-08-30T21:59:34.958Z,60.50
2018-08-30T22:02:03.162Z,61.27
2018-08-30T22:04:31.373Z,62.14
2018-08-30T22:06:59.581Z,61.86
2018-08-30T22:09:27.802Z,61.75
2018-08-30T22:11:56.022Z,61.76
2018-08-30T22:14:24.236Z,63.07
2018-08-30T22:16:52.463Z,62.43
2018-08-30T22:19:20.693Z,62.54
2018-08-30T22:21:48.899Z,64.46
2018-08-30T22:24:17.128Z,63.09
2018-08-30T22:26:45.333Z,63.88
2018-08-30T22:29:13.547Z,64.10
2018-08-30T22:31:41.766Z,62.97
2018-08-30T22:34:09.962Z,61.92
2018-08-30T22:36:38.186Z,61.29
2018-08-30T22:39:07.410Z,62.19
2018-08-30T22:41:35.635Z,61.76
2018-08-30T22:44:03.832Z,62.57
2018-08-30T22:46:32.061Z,61.90
2018-08-30T22:49:00.286Z,62.31
2018-08-30T22:51:28.518Z,61.89
2018-08-30T22:53:56.745Z,62.58
2018-08-30T22:56:24.978Z,62.11
2018-08-30T22:58:53.178Z,62.76
2018-08-30T23:01:21.386Z,62.89
2018-08-30T23:03:49.601Z,63.20
2018-08-30T23:06:17.808Z,62.53
2018-08-30T23:08:46.019Z,63.21
2018-08-30T23:11:14.259Z,62.49
2018-08-30T23:13:42.477Z,63.29
2018-08-30T23:16:10.715Z,63.99
2018-08-30T23:18:38.941Z,63.46
2018-08-30T23:21:07.217Z,63.37
2018-08-30T23:23:35.430Z,63.03
2018-08-30T23:26:03.642Z,63.34
2018-08-30T23:28:31.869Z,62.19
2018-08-30T23:31:00.102Z,62.56
2018-08-30T23:33:28.310Z,63.92
2018-08-30T23:35:56.545Z,64.41
2018-08-30T23:38:24.766Z,63.82
2018-08-30T23:40:52.983Z,65.19
2018-08-30T23:43:21.209Z,64.86
2018-08-30T23:45:49.414Z,65.37
2018-08-30T23:48:17.658Z,64.63
2018-08-30T23:50:45.882Z,64.65
2018-08-30T23:53:14.096Z,64.77
2018-08-30T23:55:42.342Z,64.49
2018-08-30T23:58:21.836Z,65.02
